Aérodrome :
LOGIN :

S'inscrire | Disclaimer

   EN    FR    IT 

 










Légende :    VFR   VFR Marginal   IFR   IFR Intensif   IFR Très Intensif
Visi : 
Plafond : 
>= 8 km
>= 3000ft
5 à 8 km
1000 à 3000 ft
1500m à 5 km
500 à 1000 ft
800 à 1500m
200 à 500 ft
< 800m
< 200 ft
Symboles :   Orages  Brouillard  Fortes neiges  Fortes précipitations  Vent > 20 kt
SIGMETs :   Divers  Orages  Givrage  Turbulence  Onde Orograph.  Cendres Volcan.







- Altitude de l'aérodrome : 464 ft
- Code IATA : EVX
- Voir les cartes d'approche


LFOE - Evreux

DERNIER METAR :
  • 241230Z AUTO 02006KT 310V090 9999 FEW046 21/09 Q1024 NOSIG

METARs EXPIRÉS :
  • 241200Z AUTO 03007KT 360V070 CAVOK 21/10 Q1024 NOSIG
  • 241130Z AUTO 01007KT 310V050 CAVOK 21/10 Q1024 NOSIG
  • 241100Z AUTO 02006KT 330V070 CAVOK 21/10 Q1024 NOSIG
  • 241030Z AUTO 35006KT 310V040 CAVOK 20/10 Q1024 NOSIG
  • 241000Z AUTO 36003KT 280V090 CAVOK 20/09 Q1024 NOSIG

TAF TAF LFOE
Valide du 24 à 09h jusqu'au 25 à 09h UTC


240800Z 2409/2509 02004KT CAVOK
Pas de NOTAMs connus pour ce terrain.



MET'MAP, la Météo Aéronautique d'un coup d'oeil ! - Copyright ORBIFLY Décembre 2007 - Disclaimer

ORBIFLY MET'MAP TEAM :

Programmation & Développement : Alexandra Zaïnal
Conception & Développement : Baudouin d'Aumeries
Co-Programmation & Développement : Marc-Olivier Méhu
Soutien technique & logistique : Manuel Goepfert

Contact : metmap@orbifly.com




SOURCES & CREDITS :

   NOAA